Time;durP1;ratioP1;P1;durP2;ratioP2;P2;SDS_P1;SDS_P2;PMS_P1;PMS_P2;Temp;Humidity;BMP_temperature;BMP_pressure;BME280_temperature;BME280_humidity;BME280_pressure;Samples;Min_cycle;Max_cycle;Signal;HPM_P1;HPM_P2
2022/06/06 08:38:11;;;;;;;2.67;1.67;;;23.60;87.00;;;;;;5078962;28;20633;-78
2022/06/06 08:40:40;;;;;;;3.45;1.98;;;23.70;85.00;;;;;;5064088;28;20052;-78
2022/06/06 08:43:17;;;;;;;2.75;1.45;;;23.70;83.30;;;;;;5058965;28;20021;-78
2022/06/06 08:45:51;;;;;;;5.50;1.88;;;23.60;82.70;;;;;;5027800;28;20062;-78
2022/06/06 08:48:41;;;;;;;3.58;1.40;;;23.70;83.50;;;;;;4999940;28;20043;-79
2022/06/06 08:51:37;;;;;;;5.18;1.50;;;23.60;80.20;;;;;;4999448;28;20034;-77
2022/06/06 08:54:30;;;;;;;3.92;1.30;;;23.70;79.90;;;;;;5018579;28;20041;-77
2022/06/06 08:57:06;;;;;;;2.20;1.08;;;23.80;80.30;;;;;;5018891;28;20323;-77
2022/06/06 09:00:02;;;;;;;3.88;1.40;;;23.80;78.40;;;;;;5019472;28;20034;-77
2022/06/06 09:02:48;;;;;;;2.63;1.30;;;24.00;78.80;;;;;;5039136;28;20282;-77
2022/06/06 09:05:38;;;;;;;4.55;1.60;;;23.90;77.30;;;;;;5038467;28;20036;-78
2022/06/06 09:08:10;;;;;;;3.95;1.27;;;24.00;78.30;;;;;;5037800;28;20025;-78
2022/06/06 09:10:55;;;;;;;2.13;1.00;;;24.20;76.40;;;;;;5039164;28;20045;-77
2022/06/06 09:13:58;;;;;;;2.15;1.00;;;24.30;76.60;;;;;;5038639;28;20075;-77
2022/06/06 09:17:03;;;;;;;3.97;1.30;;;24.40;75.40;;;;;;5038709;28;20167;-77
2022/06/06 09:19:57;;;;;;;4.45;0.98;;;24.70;75.60;;;;;;5030966;28;20322;-76
2022/06/06 09:22:47;;;;;;;2.88;1.10;;;25.10;73.10;;;;;;5039204;28;20029;-78
2022/06/06 09:25:33;;;;;;;2.92;1.00;;;25.30;73.80;;;;;;5038530;28;20033;-77
2022/06/06 09:28:17;;;;;;;2.45;1.10;;;24.90;73.00;;;;;;5038144;28;20193;-79
2022/06/06 09:31:08;;;;;;;4.30;1.13;;;24.10;74.20;;;;;;5038371;28;20037;-78
2022/06/06 09:33:42;;;;;;;4.38;1.27;;;23.90;76.50;;;;;;5038569;28;20219;-77
2022/06/06 09:36:37;;;;;;;2.30;1.00;;;23.90;76.90;;;;;;5037384;28;20049;-76
2022/06/06 09:39:18;;;;;;;3.03;1.05;;;24.30;75.50;;;;;;5027427;28;20339;-76
2022/06/06 09:42:19;;;;;;;1.90;1.00;;;24.50;74.90;;;;;;5038942;28;20038;-78
2022/06/06 09:44:57;;;;;;;4.47;1.10;;;24.60;74.90;;;;;;5038754;28;20101;-77
2022/06/06 09:47:44;;;;;;;1.95;0.98;;;24.80;73.40;;;;;;5052903;28;20360;-78
2022/06/06 09:50:22;;;;;;;1.95;0.98;;;24.70;75.40;;;;;;5045746;28;20025;-76
2022/06/06 09:53:01;;;;;;;;;;;24.70;73.30;;;;;;5046413;28;20227;-80
2022/06/06 09:59:01;;;;;;;;;;;24.60;73.80;;;;;;5045486;28;20045;-78
2022/06/06 10:01:34;;;;;;;2.72;1.20;;;24.40;73.50;;;;;;5043550;28;19909;-79
2022/06/06 10:04:58;;;;;;;3.17;1.05;;;24.20;73.60;;;;;;5043900;28;20041;-78
2022/06/06 10:07:52;;;;;;;1.77;0.98;;;24.50;72.80;;;;;;5014196;28;20053;-77
2022/06/06 10:10:37;;;;;;;2.15;0.90;;;24.80;72.60;;;;;;5047615;28;20034;-77
2022/06/06 10:13:21;;;;;;;1.95;0.95;;;24.90;71.60;;;;;;5048388;28;20055;-79
2022/06/06 10:16:14;;;;;;;3.05;1.10;;;25.10;71.50;;;;;;5049074;28;20044;-76
2022/06/06 10:19:01;;;;;;;2.85;0.95;;;25.30;70.00;;;;;;5050031;28;20087;-75
2022/06/06 10:21:49;;;;;;;3.55;0.77;;;25.20;70.50;;;;;;5048255;28;20239;-77
2022/06/06 10:24:25;;;;;;;3.38;0.80;;;25.20;69.90;;;;;;5046925;28;20036;-77
2022/06/06 10:26:54;;;;;;;2.20;0.93;;;25.30;70.40;;;;;;5044906;28;20042;-77
2022/06/06 10:30:10;;;;;;;;;;;25.90;69.50;;;;;;5044421;28;20088;-77
2022/06/06 10:32:51;;;;;;;2.63;1.15;;;25.90;69.40;;;;;;5042113;28;20066;-77
2022/06/06 10:35:43;;;;;;;1.70;1.05;;;26.10;69.10;;;;;;5043358;28;20068;-78
2022/06/06 10:38:31;;;;;;;3.03;0.98;;;26.20;68.90;;;;;;5024125;28;20345;-77
2022/06/06 10:41:46;;;;;;;2.17;0.98;;;26.60;68.10;;;;;;5024259;28;20033;-78
2022/06/06 10:44:20;;;;;;;1.70;0.90;;;26.40;67.50;;;;;;5002114;28;20069;-76
2022/06/06 10:46:46;;;;;;;2.42;1.10;;;26.60;67.80;;;;;;5002458;28;20062;-77
2022/06/06 10:49:41;;;;;;;2.20;1.13;;;26.50;69.60;;;;;;5002015;28;20049;-77
2022/06/06 10:52:58;;;;;;;2.75;1.15;;;26.30;69.40;;;;;;5002066;28;20034;-77
2022/06/06 10:55:43;;;;;;;2.97;1.08;;;26.10;70.10;;;;;;5002216;28;20054;-77
2022/06/06 10:58:27;;;;;;;3.13;1.23;;;26.10;68.60;;;;;;5001923;28;20039;-77
2022/06/06 11:01:30;;;;;;;2.20;1.13;;;25.90;69.60;;;;;;5001106;28;20328;-77
2022/06/06 11:04:29;;;;;;;2.40;1.38;;;25.90;70.00;;;;;;5002365;28;20041;-77
2022/06/06 11:07:13;;;;;;;2.13;1.20;;;25.70;70.30;;;;;;5002263;28;20122;-77
2022/06/06 11:09:57;;;;;;;3.38;1.33;;;25.90;70.00;;;;;;5002403;28;20050;-77
2022/06/06 11:12:59;;;;;;;4.93;1.10;;;26.10;69.30;;;;;;5001760;28;20370;-77
2022/06/06 11:15:53;;;;;;;1.42;0.80;;;26.70;67.10;;;;;;5016196;28;20077;-77
2022/06/06 11:19:12;;;;;;;2.08;0.80;;;26.90;65.80;;;;;;5022961;28;20319;-78
2022/06/06 11:22:13;;;;;;;3.30;1.02;;;26.90;65.60;;;;;;4981482;28;20109;-79
2022/06/06 11:24:52;;;;;;;3.03;1.10;;;27.10;65.40;;;;;;5002029;28;20042;-78
2022/06/06 11:27:23;;;;;;;1.90;0.90;;;27.30;65.40;;;;;;5016952;28;20054;-77
2022/06/06 11:30:08;;;;;;;2.47;1.00;;;27.20;65.50;;;;;;5023310;28;20147;-78
2022/06/06 11:32:42;;;;;;;2.38;1.15;;;27.20;65.60;;;;;;5023511;28;20064;-78
2022/06/06 11:35:21;;;;;;;2.35;1.15;;;27.60;65.80;;;;;;5022732;28;20040;-77
2022/06/06 11:38:05;;;;;;;2.17;0.90;;;28.40;65.70;;;;;;5023494;28;20053;-77
2022/06/06 11:40:31;;;;;;;3.17;1.30;;;28.80;64.70;;;;;;5023250;28;20041;-77
2022/06/06 11:43:28;;;;;;;2.10;0.85;;;29.80;63.30;;;;;;5023280;28;20022;-77
2022/06/06 11:46:22;;;;;;;4.70;1.10;;;30.30;61.20;;;;;;5022623;28;20041;-77
2022/06/06 11:49:06;;;;;;;2.72;1.23;;;30.20;60.10;;;;;;5023120;28;20311;-78
2022/06/06 11:51:47;;;;;;;3.22;1.00;;;29.50;62.50;;;;;;5023074;28;20022;-77
2022/06/06 11:54:50;;;;;;;2.15;1.20;;;28.80;62.60;;;;;;5022178;28;20045;-77
2022/06/06 11:57:36;;;;;;;2.53;1.00;;;28.40;62.20;;;;;;5022384;28;20040;-76
2022/06/06 12:00:31;;;;;;;4.38;1.60;;;27.90;63.80;;;;;;5023043;28;20080;-77
2022/06/06 12:03:17;;;;;;;3.33;1.00;;;27.20;64.30;;;;;;5022697;28;20042;-78
2022/06/06 12:06:00;;;;;;;1.60;0.95;;;26.90;65.50;;;;;;5022896;28;20088;-77
2022/06/06 12:08:54;;;;;;;2.45;1.20;;;26.70;66.00;;;;;;5022087;28;20091;-78
2022/06/06 12:11:49;;;;;;;2.42;1.10;;;27.70;64.60;;;;;;5022398;28;20033;-78
2022/06/06 12:14:39;;;;;;;4.15;0.95;;;28.90;63.00;;;;;;5022925;28;20105;-78
2022/06/06 12:17:05;;;;;;;2.38;1.20;;;28.60;63.00;;;;;;5022223;28;20054;-80
2022/06/06 12:19:40;;;;;;;3.33;1.00;;;27.80;62.70;;;;;;5021213;28;20266;-78
2022/06/06 12:22:24;;;;;;;3.60;1.35;;;27.20;64.40;;;;;;5022526;28;20044;-78
2022/06/06 12:25:15;;;;;;;2.50;1.00;;;26.80;65.20;;;;;;5022562;28;20025;-77
2022/06/06 12:28:09;;;;;;;2.30;1.00;;;26.70;64.10;;;;;;5023410;28;20208;-77
2022/06/06 12:31:05;;;;;;;2.17;1.00;;;26.20;64.30;;;;;;5012606;28;20034;-78
2022/06/06 12:33:48;;;;;;;2.03;0.90;;;26.10;65.60;;;;;;5021740;28;20359;-77
2022/06/06 12:36:21;;;;;;;5.25;1.00;;;26.50;65.60;;;;;;5028554;28;20059;-77
2022/06/06 12:39:05;;;;;;;2.35;0.90;;;26.90;63.50;;;;;;5042524;28;20033;-79
2022/06/06 12:41:52;;;;;;;1.92;0.95;;;28.00;63.30;;;;;;5041800;28;20037;-77
2022/06/06 12:44:26;;;;;;;2.95;0.77;;;29.80;60.40;;;;;;5041891;28;20037;-76
2022/06/06 12:47:21;;;;;;;3.10;0.85;;;32.40;56.50;;;;;;5041794;28;20045;-77
2022/06/06 12:49:49;;;;;;;2.83;1.00;;;33.30;54.90;;;;;;5034010;28;20037;-79
2022/06/06 12:52:22;;;;;;;2.28;0.73;;;33.40;54.50;;;;;;5041822;28;20037;-78
2022/06/06 12:58:17;;;;;;;1.67;0.88;;;35.90;51.90;;;;;;5040822;28;20045;-77
2022/06/06 13:03:44;;;;;;;1.85;0.70;;;37.50;50.50;;;;;;5041720;28;20181;-77
2022/06/06 13:06:31;;;;;;;2.67;0.95;;;37.20;49.80;;;;;;5042237;28;20101;-77
2022/06/06 13:09:28;;;;;;;1.33;0.65;;;36.50;49.50;;;;;;5042082;28;20033;-77
2022/06/06 13:12:14;;;;;;;1.23;0.70;;;34.70;51.20;;;;;;5042402;28;20040;-77
2022/06/06 13:15:05;;;;;;;2.53;0.77;;;32.90;52.90;;;;;;5041826;28;20036;-78
2022/06/06 13:18:05;;;;;;;1.77;0.70;;;30.90;55.60;;;;;;5040939;28;20236;-77
2022/06/06 13:20:47;;;;;;;3.25;1.00;;;29.20;57.30;;;;;;5040258;28;20335;-77
2022/06/06 13:23:16;;;;;;;2.53;1.30;;;28.50;59.20;;;;;;5042799;28;20037;-78
2022/06/06 13:26:10;;;;;;;3.33;1.02;;;27.70;60.80;;;;;;5044503;28;20037;-79
2022/06/06 13:29:03;;;;;;;2.45;0.95;;;27.10;62.60;;;;;;5044900;28;20055;-79
2022/06/06 13:31:54;;;;;;;2.33;1.20;;;26.60;63.10;;;;;;5043524;28;20041;-78
2022/06/06 13:34:42;;;;;;;2.90;1.25;;;26.20;64.80;;;;;;5045180;28;20070;-77
2022/06/06 13:37:36;;;;;;;3.15;1.10;;;26.00;65.60;;;;;;5045353;28;20080;-77
2022/06/06 13:40:15;;;;;;;1.75;0.77;;;25.80;64.70;;;;;;5045321;28;20025;-77
2022/06/06 13:43:15;;;;;;;4.35;1.05;;;25.40;64.60;;;;;;5043854;28;20040;-77
2022/06/06 13:46:05;;;;;;;2.17;0.77;;;25.20;64.60;;;;;;5044666;28;20033;-78
2022/06/06 13:48:42;;;;;;;2.55;0.95;;;24.90;64.30;;;;;;5044662;28;20079;-80
2022/06/06 13:51:35;;;;;;;1.90;0.85;;;24.60;65.20;;;;;;5045296;28;20033;-77
2022/06/06 13:54:24;;;;;;;3.63;1.45;;;24.30;66.60;;;;;;5045169;28;20034;-76
2022/06/06 13:57:05;;;;;;;3.20;1.10;;;24.10;66.90;;;;;;5044874;28;20041;-78
2022/06/06 13:59:36;;;;;;;2.95;1.13;;;24.00;68.00;;;;;;5044294;28;20030;-77
2022/06/06 14:02:22;;;;;;;2.45;0.98;;;23.90;67.90;;;;;;5044787;28;20100;-78
2022/06/06 14:04:51;;;;;;;2.00;1.00;;;23.80;68.10;;;;;;5044876;28;20060;-79
2022/06/06 14:07:29;;;;;;;;;;;23.80;68.80;;;;;;5045125;28;20123;-77
2022/06/06 14:10:07;;;;;;;2.00;1.10;;;24.00;68.90;;;;;;5044883;28;19981;-76
2022/06/06 14:12:52;;;;;;;2.67;1.17;;;24.10;68.90;;;;;;5044550;28;20029;-77
2022/06/06 14:15:21;;;;;;;6.28;1.10;;;24.10;68.70;;;;;;5042502;28;20089;-77
2022/06/06 14:17:54;;;;;;;2.53;1.27;;;24.20;68.70;;;;;;5043506;28;20047;-78
2022/06/06 14:20:20;;;;;;;2.45;1.13;;;24.30;68.80;;;;;;5043010;28;20218;-78
2022/06/06 14:22:49;;;;;;;2.88;1.02;;;24.10;69.30;;;;;;5044488;28;20048;-77
2022/06/06 14:25:15;;;;;;;2.33;1.05;;;24.00;69.60;;;;;;5043521;28;20089;-79
2022/06/06 14:27:42;;;;;;;2.10;0.90;;;24.00;69.40;;;;;;5043277;28;20040;-78
2022/06/06 14:30:26;;;;;;;3.20;1.33;;;23.80;69.90;;;;;;5059594;28;20017;-78
2022/06/06 14:33:00;;;;;;;5.20;1.15;;;24.00;70.20;;;;;;5044331;28;20311;-78
2022/06/06 14:35:38;;;;;;;2.60;1.30;;;24.20;70.10;;;;;;5043302;28;20096;-79
2022/06/06 14:38:31;;;;;;;2.38;1.27;;;24.50;70.40;;;;;;5044513;28;20037;-78
2022/06/06 14:41:01;;;;;;;2.45;1.15;;;25.10;69.30;;;;;;5043333;28;20044;-81
2022/06/06 14:43:43;;;;;;;2.17;1.02;;;26.20;66.50;;;;;;5043910;28;20276;-78
2022/06/06 14:46:10;;;;;;;2.30;1.27;;;27.50;64.50;;;;;;5043606;28;20087;-78
2022/06/06 14:48:47;;;;;;;4.45;1.23;;;29.00;62.50;;;;;;5043437;28;20033;-78
2022/06/06 14:51:14;;;;;;;2.10;1.10;;;29.50;61.20;;;;;;5044069;28;20304;-78
2022/06/06 14:53:48;;;;;;;3.45;1.20;;;29.50;60.60;;;;;;5043704;28;20017;-78
2022/06/06 14:56:28;;;;;;;3.88;1.00;;;29.30;61.60;;;;;;5044206;28;20228;-79
2022/06/06 14:58:58;;;;;;;2.38;1.02;;;29.90;60.20;;;;;;5043948;28;20048;-78
2022/06/06 15:01:25;;;;;;;2.10;0.93;;;31.00;58.70;;;;;;5041584;28;20040;-78
2022/06/06 15:03:54;;;;;;;2.28;0.95;;;31.20;58.10;;;;;;5043767;28;20075;-77
2022/06/06 15:06:24;;;;;;;2.47;0.88;;;31.70;57.40;;;;;;5042811;28;20033;-77
2022/06/06 15:09:11;;;;;;;2.78;1.17;;;31.00;57.90;;;;;;5043841;28;20048;-78
2022/06/06 15:11:37;;;;;;;2.50;1.00;;;31.40;57.60;;;;;;5043022;28;20033;-78
2022/06/06 15:14:21;;;;;;;5.60;1.05;;;32.60;57.00;;;;;;5043847;28;20350;-78
2022/06/06 15:16:48;;;;;;;3.85;0.88;;;34.20;55.80;;;;;;5043108;28;20052;-78
2022/06/06 15:19:36;;;;;;;1.52;0.80;;;36.90;53.00;;;;;;5042550;28;20044;-78
2022/06/06 15:22:03;;;;;;;3.17;0.90;;;36.90;52.20;;;;;;5043585;28;20033;-77
2022/06/06 15:24:43;;;;;;;1.63;0.73;;;35.60;52.30;;;;;;5042855;28;20359;-76
2022/06/06 15:27:15;;;;;;;2.67;1.10;;;34.20;53.20;;;;;;5043268;28;20420;-78
2022/06/06 15:29:49;;;;;;;1.83;0.85;;;33.20;54.40;;;;;;5042792;28;20021;-79
2022/06/06 15:32:47;;;;;;;3.35;0.95;;;31.50;55.60;;;;;;5042696;28;20037;-78
2022/06/06 15:35:19;;;;;;;2.90;1.20;;;29.90;58.80;;;;;;5021427;28;20038;-78
2022/06/06 15:38:22;;;;;;;4.40;1.40;;;28.40;60.90;;;;;;5021278;28;20053;-79
2022/06/06 15:41:02;;;;;;;3.88;1.13;;;27.20;64.00;;;;;;5021551;28;20065;-78
2022/06/06 15:43:46;;;;;;;2.65;1.30;;;26.40;66.00;;;;;;5021070;28;20053;-78
2022/06/06 15:46:36;;;;;;;2.22;1.15;;;26.00;67.20;;;;;;5020352;28;20084;-78
2022/06/06 15:49:27;;;;;;;3.75;1.13;;;26.20;67.30;;;;;;5021336;28;20033;-77
2022/06/06 15:52:19;;;;;;;3.33;1.30;;;26.40;67.50;;;;;;5021474;28;20108;-77
2022/06/06 15:55:11;;;;;;;4.10;1.13;;;26.40;67.30;;;;;;5020653;28;20045;-78
2022/06/06 15:57:59;;;;;;;3.17;1.20;;;26.10;67.70;;;;;;5020572;28;20057;-77
2022/06/06 16:00:39;;;;;;;3.53;1.20;;;25.80;68.00;;;;;;5019958;28;20335;-76
2022/06/06 16:03:25;;;;;;;3.63;1.40;;;25.60;68.60;;;;;;5021216;28;20037;-76
2022/06/06 16:05:53;;;;;;;1.88;1.30;;;25.40;69.30;;;;;;5021049;28;20049;-77
2022/06/06 16:08:28;;;;;;;3.43;1.00;;;25.30;69.40;;;;;;5021009;28;20055;-79
2022/06/06 16:11:01;;;;;;;3.90;1.30;;;25.20;69.50;;;;;;5020667;28;20364;-79
2022/06/06 16:14:02;;;;;;;2.35;1.02;;;24.90;69.90;;;;;;5042165;28;20270;-76
2022/06/06 16:16:35;;;;;;;5.60;1.63;;;24.60;70.60;;;;;;5041431;28;20045;-79
2022/06/06 16:19:05;;;;;;;2.67;1.33;;;24.60;71.60;;;;;;5041458;28;20029;-77
2022/06/06 16:21:51;;;;;;;3.65;1.42;;;24.50;72.00;;;;;;5042016;28;20056;-78
2022/06/06 16:24:36;;;;;;;3.55;1.23;;;24.40;72.00;;;;;;5042367;28;20033;-78
2022/06/06 16:27:19;;;;;;;2.88;1.35;;;24.40;72.80;;;;;;5042634;28;20065;-77
2022/06/06 16:29:57;;;;;;;3.30;1.20;;;24.40;72.70;;;;;;5040744;28;20303;-77
2022/06/06 16:32:42;;;;;;;3.30;1.30;;;24.50;72.40;;;;;;5040532;28;20227;-77
2022/06/06 16:35:32;;;;;;;2.25;1.30;;;24.70;72.10;;;;;;5042026;28;20272;-78
2022/06/06 16:38:00;;;;;;;3.20;1.27;;;24.70;72.30;;;;;;5042001;28;20068;-77
2022/06/06 16:40:40;;;;;;;3.63;1.52;;;24.50;72.60;;;;;;5041379;28;20312;-77
2022/06/06 16:49:48;;;;;;;2.05;1.17;;;24.40;73.10;;;;;;5042133;28;20052;-80
2022/06/06 16:52:20;;;;;;;2.97;1.20;;;24.10;72.70;;;;;;5041984;28;20033;-78
2022/06/06 16:55:20;;;;;;;3.05;1.20;;;24.00;72.80;;;;;;5041350;28;20033;-78
2022/06/06 16:57:55;;;;;;;3.47;1.20;;;23.70;73.30;;;;;;5042028;28;20076;-79
2022/06/06 17:00:45;;;;;;;2.95;1.20;;;23.70;74.00;;;;;;5044424;28;20029;-79
2022/06/06 17:03:48;;;;;;;2.88;1.25;;;23.60;74.00;;;;;;5046223;28;20052;-79
2022/06/06 17:09:17;;;;;;;2.97;1.05;;;23.40;74.00;;;;;;5006513;28;20049;-80
2022/06/06 17:11:57;;;;;;;2.97;1.45;;;23.20;74.30;;;;;;5005723;28;20038;-79
2022/06/06 17:14:31;;;;;;;2.63;1.20;;;23.10;75.10;;;;;;5006376;28;20034;-80
2022/06/06 17:16:57;;;;;;;3.58;1.20;;;23.10;75.20;;;;;;5005920;28;20110;-77
2022/06/06 17:19:39;;;;;;;3.80;1.40;;;22.90;75.70;;;;;;5006454;28;20034;-79
2022/06/06 17:22:27;;;;;;;3.15;1.15;;;22.80;75.90;;;;;;5006358;28;20053;-78
2022/06/06 17:24:57;;;;;;;;;;;22.80;76.30;;;;;;5006662;28;20030;-79
2022/06/06 17:28:04;;;;;;;2.88;1.15;;;22.80;76.40;;;;;;5006039;28;19905;-78
2022/06/06 17:30:56;;;;;;;3.03;1.10;;;22.80;76.50;;;;;;5001285;28;20034;-78
2022/06/06 17:33:44;;;;;;;1.50;1.10;;;22.70;76.30;;;;;;4986736;28;20027;-77
2022/06/06 17:36:22;;;;;;;3.55;1.67;;;22.60;76.60;;;;;;5024133;28;20054;-79
2022/06/06 17:38:49;;;;;;;2.43;1.60;;;22.50;77.20;;;;;;5005401;28;20086;-79
2022/06/06 17:41:27;;;;;;;3.10;1.10;;;22.40;77.60;;;;;;5006179;28;20185;-78
2022/06/06 17:43:56;;;;;;;;;;;22.40;78.00;;;;;;5006149;28;20041;-79
2022/06/06 17:46:38;;;;;;;3.28;1.50;;;22.50;77.50;;;;;;5015381;28;19956;-77
2022/06/06 17:49:41;;;;;;;3.25;1.50;;;22.40;77.70;;;;;;5024329;28;20040;-77
2022/06/06 17:52:40;;;;;;;2.80;1.42;;;22.30;77.80;;;;;;5025506;28;20080;-78
2022/06/06 17:55:21;;;;;;;3.03;1.35;;;22.20;76.80;;;;;;5025384;28;20044;-78
2022/06/06 17:58:01;;;;;;;2.67;1.08;;;22.10;77.40;;;;;;5024762;28;20034;-77
2022/06/06 18:01:12;;;;;;;2.15;1.00;;;21.90;77.00;;;;;;5024605;28;20033;-78
2022/06/06 18:03:56;;;;;;;4.05;1.23;;;21.80;77.40;;;;;;5022783;28;20065;-77
2022/06/06 18:06:59;;;;;;;2.75;1.50;;;21.70;77.50;;;;;;5024943;28;20037;-78
2022/06/06 18:10:06;;;;;;;2.17;1.05;;;21.70;77.60;;;;;;5024527;28;20018;-80
2022/06/06 18:13:13;;;;;;;2.65;1.25;;;21.80;77.50;;;;;;5024156;28;20121;-78
2022/06/06 18:15:58;;;;;;;1.95;0.90;;;21.70;77.20;;;;;;5015041;28;20378;-77
2022/06/06 18:18:32;;;;;;;2.17;1.00;;;21.70;77.30;;;;;;5023790;28;20045;-79
2022/06/06 18:21:31;;;;;;;2.03;0.90;;;22.00;77.00;;;;;;5024906;28;20033;-77
2022/06/06 18:24:05;;;;;;;2.33;0.95;;;22.10;76.10;;;;;;5024729;28;20026;-79
2022/06/06 18:26:39;;;;;;;1.83;1.10;;;22.10;76.90;;;;;;5024375;28;20040;-80
2022/06/06 18:29:25;;;;;;;3.17;1.30;;;22.00;76.60;;;;;;5023381;28;20030;-77
2022/06/06 18:32:04;;;;;;;2.75;1.00;;;21.80;76.90;;;;;;5022567;28;20046;-80
2022/06/06 18:34:31;;;;;;;;;;;21.70;77.30;;;;;;5025061;28;20034;-79
2022/06/06 18:37:07;;;;;;;2.58;1.05;;;21.60;77.50;;;;;;5022847;28;19975;-79
2022/06/06 18:39:55;;;;;;;2.85;1.50;;;21.60;77.80;;;;;;5022578;28;20048;-78
2022/06/06 18:42:31;;;;;;;4.93;1.52;;;21.60;77.70;;;;;;5024350;28;20078;-78
2022/06/06 18:45:24;;;;;;;2.95;1.15;;;21.60;78.00;;;;;;5024376;28;20060;-81
2022/06/06 18:47:52;;;;;;;2.33;1.00;;;21.50;77.70;;;;;;5004118;28;20069;-80
2022/06/06 18:50:31;;;;;;;3.05;1.38;;;21.50;77.70;;;;;;5004787;28;20262;-78
2022/06/06 18:53:00;;;;;;;3.85;1.10;;;21.40;78.20;;;;;;5004751;28;20026;-78
2022/06/06 18:55:34;;;;;;;2.53;1.00;;;21.30;77.90;;;;;;5004476;28;20053;-79
2022/06/06 18:58:20;;;;;;;2.95;0.90;;;21.30;77.70;;;;;;5004361;28;20042;-79
2022/06/06 19:00:49;;;;;;;3.15;1.20;;;21.20;77.50;;;;;;5003628;28;20316;-79
2022/06/06 19:03:50;;;;;;;2.10;0.82;;;21.10;77.90;;;;;;5003120;28;20350;-79
2022/06/06 19:06:16;;;;;;;3.35;1.10;;;21.10;78.00;;;;;;5003194;28;20101;-78
2022/06/06 19:08:51;;;;;;;2.88;0.95;;;21.10;78.10;;;;;;5003913;28;20018;-78
2022/06/06 19:11:25;;;;;;;3.10;1.10;;;21.10;78.50;;;;;;5004427;28;20034;-78
2022/06/06 19:13:54;;;;;;;4.10;1.13;;;21.00;78.40;;;;;;5002519;28;20034;-79
2022/06/06 19:16:25;;;;;;;2.60;1.00;;;21.00;78.20;;;;;;5014431;28;20069;-79
2022/06/06 19:18:55;;;;;;;1.95;0.80;;;21.00;78.50;;;;;;5023421;28;20038;-78
2022/06/06 19:21:29;;;;;;;2.22;0.98;;;20.90;78.60;;;;;;5023019;28;20065;-80
2022/06/06 19:24:14;;;;;;;2.08;1.23;;;20.80;78.40;;;;;;5023084;28;20037;-77
2022/06/06 19:26:48;;;;;;;2.90;1.02;;;20.80;78.70;;;;;;5023031;28;20036;-78
2022/06/06 19:29:33;;;;;;;2.63;0.82;;;20.80;79.00;;;;;;5023412;28;20032;-78
2022/06/06 19:32:13;;;;;;;2.53;1.23;;;20.70;78.70;;;;;;5021847;28;20034;-78
2022/06/06 19:35:28;;;;;;;4.68;1.00;;;20.70;79.20;;;;;;5022796;28;20308;-78
2022/06/06 19:37:57;;;;;;;2.90;0.93;;;20.70;78.70;;;;;;5022439;28;20271;-78
2022/06/06 19:40:34;;;;;;;2.88;0.90;;;20.60;79.20;;;;;;5023387;28;20026;-78
2022/06/06 19:43:18;;;;;;;2.63;1.20;;;20.70;78.90;;;;;;5023207;28;20025;-78
2022/06/06 19:45:58;;;;;;;3.00;1.00;;;20.70;78.90;;;;;;5021002;28;20306;-79
2022/06/06 19:48:43;;;;;;;3.20;1.00;;;20.60;78.80;;;;;;5023243;28;20030;-78
2022/06/06 19:51:41;;;;;;;3.20;1.20;;;20.60;79.10;;;;;;5023220;28;20040;-79
2022/06/06 19:54:35;;;;;;;1.95;0.98;;;20.50;79.10;;;;;;5022959;28;20049;-79
2022/06/06 19:57:18;;;;;;;2.42;1.00;;;20.50;79.10;;;;;;5023150;28;20153;-80
2022/06/06 19:59:56;;;;;;;2.22;1.00;;;20.60;78.80;;;;;;5022442;28;20034;-80
2022/06/06 20:02:37;;;;;;;2.17;0.85;;;20.50;78.40;;;;;;5023034;28;20088;-78
2022/06/06 20:05:23;;;;;;;2.03;1.13;;;20.40;78.70;;;;;;5023666;28;20247;-79
2022/06/06 20:07:50;;;;;;;3.40;1.20;;;20.30;79.30;;;;;;5021774;28;20088;-79
2022/06/06 20:10:21;;;;;;;2.85;1.27;;;20.30;79.70;;;;;;5023300;28;20192;-79
2022/06/06 20:12:50;;;;;;;3.72;1.33;;;20.20;79.80;;;;;;5022620;28;20030;-80
2022/06/06 20:15:29;;;;;;;3.65;1.25;;;20.10;80.20;;;;;;5022932;28;20215;-80
2022/06/06 20:18:02;;;;;;;2.45;1.00;;;20.20;80.50;;;;;;5054762;28;20053;-80
2022/06/06 20:20:29;;;;;;;2.70;1.10;;;20.10;80.70;;;;;;5023634;28;20044;-80
2022/06/06 20:23:11;;;;;;;3.67;1.40;;;20.10;80.70;;;;;;5021533;28;20230;-79
2022/06/06 20:25:57;;;;;;;2.58;1.23;;;20.10;80.70;;;;;;5023165;28;20038;-79
2022/06/06 20:28:31;;;;;;;2.17;0.80;;;20.00;80.90;;;;;;5022175;28;20076;-79
2022/06/06 20:34:00;;;;;;;1.90;1.05;;;20.00;80.70;;;;;;5021489;28;20029;-80
2022/06/06 20:36:48;;;;;;;3.13;1.10;;;20.00;80.80;;;;;;5022782;28;20108;-78
2022/06/06 20:39:38;;;;;;;2.20;1.10;;;20.00;80.80;;;;;;5021694;28;20022;-79
2022/06/06 20:42:30;;;;;;;2.35;1.13;;;20.00;80.80;;;;;;5023121;28;20061;-79
2022/06/06 20:45:04;;;;;;;2.97;1.00;;;20.00;80.50;;;;;;5022041;28;20104;-79
2022/06/06 20:47:34;;;;;;;2.67;1.02;;;20.00;80.80;;;;;;5021539;28;20050;-79
2022/06/06 20:50:02;;;;;;;3.13;1.00;;;20.00;81.20;;;;;;5022372;28;20037;-79
2022/06/06 20:52:42;;;;;;;2.58;1.20;;;20.00;81.10;;;;;;5022781;28;20096;-78
2022/06/06 20:55:23;;;;;;;4.45;1.15;;;20.00;80.70;;;;;;5022816;28;20320;-79
2022/06/06 20:58:13;;;;;;;2.10;0.93;;;20.00;80.90;;;;;;5022098;28;20038;-79
2022/06/06 21:00:44;;;;;;;1.85;1.00;;;20.00;80.90;;;;;;5020870;28;20038;-79
2022/06/06 21:03:13;;;;;;;3.85;1.00;;;19.90;81.10;;;;;;5021334;28;20037;-78
2022/06/06 21:05:45;;;;;;;1.92;1.05;;;19.90;81.10;;;;;;5022530;28;20026;-81
2022/06/06 21:08:20;;;;;;;4.10;1.08;;;19.90;81.20;;;;;;5022416;28;20041;-78
2022/06/06 21:10:51;;;;;;;4.68;1.60;;;19.90;80.60;;;;;;5021880;28;20034;-79
2022/06/06 21:13:21;;;;;;;2.30;0.88;;;19.90;80.90;;;;;;5022497;28;20034;-78
2022/06/06 21:15:50;;;;;;;2.83;1.38;;;19.90;80.90;;;;;;5023014;28;20101;-78
2022/06/06 21:18:16;;;;;;;3.70;0.95;;;19.80;81.10;;;;;;5023247;28;20053;-79
2022/06/06 21:20:47;;;;;;;3.75;1.58;;;19.80;81.30;;;;;;5023960;28;20021;-80
2022/06/06 21:23:19;;;;;;;2.50;1.15;;;19.80;81.30;;;;;;5023299;28;20038;-79
2022/06/06 21:25:46;;;;;;;2.08;0.93;;;19.80;81.30;;;;;;5024102;28;20038;-80
2022/06/06 21:28:13;;;;;;;3.72;1.13;;;19.80;81.20;;;;;;5023198;28;20026;-79
2022/06/06 21:30:39;;;;;;;1.45;0.85;;;19.80;81.20;;;;;;5021127;28;20100;-79
2022/06/06 21:33:05;;;;;;;2.85;0.98;;;19.80;81.40;;;;;;5021418;28;20251;-79
2022/06/06 21:35:34;;;;;;;2.38;0.98;;;19.70;81.50;;;;;;5020643;28;20034;-78
2022/06/06 21:38:03;;;;;;;2.35;1.17;;;19.70;81.50;;;;;;5021217;28;20316;-78
2022/06/06 21:40:30;;;;;;;4.20;0.90;;;19.70;81.70;;;;;;5022079;28;20076;-78
2022/06/06 21:42:55;;;;;;;2.22;1.00;;;19.70;81.80;;;;;;5021564;28;20060;-79
2022/06/06 21:45:21;;;;;;;2.47;1.20;;;19.60;81.80;;;;;;5024264;28;20034;-80
2022/06/06 21:47:50;;;;;;;2.88;1.00;;;19.60;81.90;;;;;;5024961;28;20030;-79
2022/06/06 21:50:16;;;;;;;;;;;19.60;81.90;;;;;;5025785;28;20048;-80
2022/06/06 21:52:44;;;;;;;2.80;1.00;;;19.70;81.70;;;;;;5025297;28;19909;-80
2022/06/06 21:55:10;;;;;;;2.05;0.93;;;19.70;81.60;;;;;;5025338;28;20030;-79
2022/06/06 21:57:36;;;;;;;4.00;1.25;;;19.70;81.70;;;;;;5025116;28;20083;-80
2022/06/06 22:00:08;;;;;;;1.95;0.95;;;19.70;81.70;;;;;;5024630;28;20033;-78
2022/06/06 22:02:36;;;;;;;1.45;0.90;;;19.60;81.90;;;;;;5023973;28;20319;-77
2022/06/06 22:05:03;;;;;;;2.42;0.80;;;19.60;81.90;;;;;;5024540;28;20026;-80
2022/06/06 22:07:31;;;;;;;2.00;0.90;;;19.60;82.00;;;;;;5024981;28;20327;-78
2022/06/06 22:10:00;;;;;;;2.83;0.90;;;19.60;82.20;;;;;;5024548;28;20068;-77
2022/06/06 22:12:25;;;;;;;2.28;0.90;;;19.60;82.30;;;;;;5024975;28;20215;-80
2022/06/06 22:14:54;;;;;;;2.75;0.80;;;19.60;82.50;;;;;;5024287;28;20029;-80
2022/06/06 22:17:19;;;;;;;;;;;19.60;82.70;;;;;;5024964;28;20368;-79
2022/06/06 22:19:45;;;;;;;3.67;1.30;;;19.50;82.90;;;;;;5024299;28;19940;-79
2022/06/06 22:22:11;;;;;;;1.98;0.90;;;19.60;82.80;;;;;;5023728;28;20032;-78
2022/06/06 22:24:40;;;;;;;2.55;0.90;;;19.60;83.00;;;;;;5023816;28;20044;-78
2022/06/06 22:27:08;;;;;;;1.70;0.80;;;19.50;83.00;;;;;;5024373;28;20029;-78
2022/06/06 22:29:37;;;;;;;2.05;0.80;;;19.50;83.10;;;;;;5024879;28;20034;-78
2022/06/06 22:32:02;;;;;;;;;;;19.50;83.20;;;;;;5024677;28;20041;-78
2022/06/06 22:34:29;;;;;;;3.70;0.93;;;19.40;83.50;;;;;;5024698;28;19951;-77
2022/06/06 22:36:54;;;;;;;2.50;0.90;;;19.40;83.70;;;;;;5023841;28;20049;-79
2022/06/06 22:39:20;;;;;;;2.70;1.00;;;19.40;83.90;;;;;;5039979;28;20085;-78
2022/06/06 22:41:46;;;;;;;2.90;0.90;;;19.40;83.90;;;;;;5024045;28;20195;-78
2022/06/06 22:44:12;;;;;;;1.90;0.80;;;19.40;83.90;;;;;;5024352;28;20182;-78
2022/06/06 22:46:38;;;;;;;3.40;1.00;;;19.30;83.90;;;;;;5024031;28;20061;-78
2022/06/06 22:49:03;;;;;;;4.28;1.17;;;19.40;84.00;;;;;;5023668;28;20299;-78
2022/06/06 22:51:29;;;;;;;3.60;1.10;;;19.30;84.40;;;;;;5024211;28;20080;-78
2022/06/06 22:53:55;;;;;;;1.63;0.75;;;19.20;84.50;;;;;;5023836;28;20026;-78
2022/06/06 22:56:21;;;;;;;3.03;1.10;;;19.20;84.60;;;;;;5006669;28;20041;-78
2022/06/06 22:58:46;;;;;;;2.65;0.80;;;19.20;84.70;;;;;;5024066;28;20072;-78
